Time,TemperatureF,DewpointF,PressureIn,WindDirection,WindDirectionDegrees,WindSpeedMPH,WindSpeedGustMPH,Humidity,HourlyPrecipIn,Conditions,Clouds,dailyrainin,SoftwareType,DateUTC
2013-09-07 01:00:00,69.0,-99.9,30.00,South,180,18.0,-999.0,-999,-99.99,,,-99.99,,2013-09-07 01:00:00,
2013-09-07 01:22:00,69.0,-99.9,30.00,South,180,18.0,-999.0,-999,-99.99,,,-99.99,,2013-09-07 01:22:00,
2013-09-07 01:32:00,69.0,-99.9,30.00,South,180,18.0,-999.0,-999,-99.99,,,-99.99,,2013-09-07 01:32:00,
2013-09-07 01:42:00,69.0,-99.9,30.00,South,180,18.0,-999.0,-999,-99.99,,,-99.99,,2013-09-07 01:42:00,
2013-09-07 01:54:00,69.0,-99.9,30.00,South,180,18.0,-999.0,-999,-99.99,,,-99.99,,2013-09-07 01:54:00,
2013-09-07 02:00:00,65.0,-99.9,30.00,SSE,160,20.0,-999.0,-999,-99.99,,,-99.99,,2013-09-07 02:00:00,
2013-09-07 02:52:00,65.0,-99.9,30.00,SSE,160,20.0,-999.0,-999,-99.99,,,-99.99,,2013-09-07 02:52:00,
2013-09-07 08:00:00,64.0,-99.9,-100.00,East,80,7.0,-999.0,-999,-99.99,,,-99.99,,2013-09-07 08:00:00,
2013-09-07 08:43:00,64.0,-99.9,-100.00,East,80,7.0,-999.0,-999,-99.99,,,-99.99,,2013-09-07 08:43:00,
2013-09-07 08:53:00,64.0,-99.9,-100.00,East,80,7.0,-999.0,-999,-99.99,,,-99.99,,2013-09-07 08:53:00,
2013-09-07 09:00:00,64.0,-99.9,-100.00,East,90,9.0,-999.0,-999,-99.99,,,-99.99,,2013-09-07 09:00:00,
2013-09-07 09:43:00,64.0,-99.9,-100.00,East,90,9.0,-999.0,-999,-99.99,,,-99.99,,2013-09-07 09:43:00,
2013-09-07 09:52:00,64.0,-99.9,-100.00,East,90,9.0,-999.0,-999,-99.99,,,-99.99,,2013-09-07 09:52:00,
2013-09-07 13:00:00,60.0,-99.9,30.00,ESE,110,7.0,-999.0,-999,-99.99,,,-99.99,,2013-09-07 13:00:00,
2013-09-07 13:42:00,60.0,-99.9,30.00,ESE,110,7.0,-999.0,-999,-99.99,,,-99.99,,2013-09-07 13:42:00,
2013-09-07 13:52:00,60.0,-99.9,30.00,ESE,110,7.0,-999.0,-999,-99.99,,,-99.99,,2013-09-07 13:52:00,
2013-09-07 15:00:00,58.0,-99.9,30.00,NE,40,6.0,-999.0,-999,-99.99,,,-99.99,,2013-09-07 15:00:00,
2013-09-07 15:23:00,58.0,-99.9,30.00,NE,40,6.0,-999.0,-999,-99.99,,,-99.99,,2013-09-07 15:23:00,
2013-09-07 15:34:00,58.0,-99.9,30.00,NE,40,6.0,-999.0,-999,-99.99,,,-99.99,,2013-09-07 15:34:00,
2013-09-07 15:44:00,58.0,-99.9,30.00,NE,40,6.0,-999.0,-999,-99.99,,,-99.99,,2013-09-07 15:44:00,
2013-09-07 15:54:00,58.0,-99.9,30.00,NE,40,6.0,-999.0,-999,-99.99,,,-99.99,,2013-09-07 15:54:00,
2013-09-07 20:00:00,64.0,-99.9,30.03,NW,310,21.0,-999.0,-999,-99.99,,,-99.99,,2013-09-07 20:00:00,
2013-09-07 20:42:00,64.0,-99.9,30.03,NW,310,21.0,-999.0,-999,-99.99,,,-99.99,,2013-09-07 20:42:00,
2013-09-07 20:53:00,64.0,-99.9,30.03,NW,310,21.0,-999.0,-999,-99.99,,,-99.99,,2013-09-07 20:53:00,
2013-09-07 22:00:00,64.0,-99.9,-100.00,WNW,290,20.0,-999.0,-999,-99.99,,,-99.99,,2013-09-07 22:00:00,
2013-09-07 22:24:00,64.0,-99.9,-100.00,WNW,290,20.0,-999.0,-999,-99.99,,,-99.99,,2013-09-07 22:24:00,
2013-09-07 22:34:00,64.0,-99.9,-100.00,WNW,290,20.0,-999.0,-999,-99.99,,,-99.99,,2013-09-07 22:34:00,
2013-09-07 22:43:00,64.0,-99.9,-100.00,WNW,290,20.0,-999.0,-999,-99.99,,,-99.99,,2013-09-07 22:43:00,
2013-09-07 22:53:00,64.0,-99.9,-100.00,WNW,290,20.0,-999.0,-999,-99.99,,,-99.99,,2013-09-07 22:53:00,